sensor_id;sensor_type;location;lat;lon;timestamp;P1;durP1;ratioP1;P2;durP2;ratioP2
19883;SDS011;10104;50.732;10.174;2023-03-13T00:01:34;25.87;;;4.63;;
19883;SDS011;10104;50.732;10.174;2023-03-13T00:03:57;19.00;;;4.23;;
19883;SDS011;10104;50.732;10.174;2023-03-13T00:06:19;21.37;;;4.57;;
19883;SDS011;10104;50.732;10.174;2023-03-13T00:08:42;15.17;;;3.87;;
19883;SDS011;10104;50.732;10.174;2023-03-13T00:11:05;16.03;;;4.23;;
19883;SDS011;10104;50.732;10.174;2023-03-13T00:13:28;13.43;;;3.43;;
19883;SDS011;10104;50.732;10.174;2023-03-13T00:15:57;19.30;;;4.13;;
19883;SDS011;10104;50.732;10.174;2023-03-13T00:18:19;21.40;;;4.17;;
19883;SDS011;10104;50.732;10.174;2023-03-13T00:20:41;13.57;;;3.87;;
19883;SDS011;10104;50.732;10.174;2023-03-13T00:23:02;15.17;;;3.57;;
19883;SDS011;10104;50.732;10.174;2023-03-13T00:25:24;18.03;;;3.83;;
19883;SDS011;10104;50.732;10.174;2023-03-13T00:27:46;20.63;;;3.93;;
19883;SDS011;10104;50.732;10.174;2023-03-13T00:30:08;20.87;;;4.37;;
19883;SDS011;10104;50.732;10.174;2023-03-13T00:32:29;20.13;;;4.13;;
19883;SDS011;10104;50.732;10.174;2023-03-13T00:34:51;18.77;;;4.23;;
19883;SDS011;10104;50.732;10.174;2023-03-13T00:37:13;15.70;;;3.80;;
19883;SDS011;10104;50.732;10.174;2023-03-13T00:39:34;14.83;;;3.80;;
19883;SDS011;10104;50.732;10.174;2023-03-13T00:41:56;16.30;;;3.93;;
19883;SDS011;10104;50.732;10.174;2023-03-13T00:44:17;16.57;;;4.00;;
19883;SDS011;10104;50.732;10.174;2023-03-13T00:46:39;19.00;;;3.93;;
19883;SDS011;10104;50.732;10.174;2023-03-13T00:49:00;14.33;;;4.00;;
19883;SDS011;10104;50.732;10.174;2023-03-13T00:51:22;18.80;;;4.13;;
19883;SDS011;10104;50.732;10.174;2023-03-13T00:53:47;13.70;;;3.43;;
19883;SDS011;10104;50.732;10.174;2023-03-13T00:56:09;17.37;;;4.23;;
19883;SDS011;10104;50.732;10.174;2023-03-13T00:58:36;21.13;;;4.10;;
19883;SDS011;10104;50.732;10.174;2023-03-13T01:01:09;17.70;;;4.27;;
19883;SDS011;10104;50.732;10.174;2023-03-13T01:03:40;20.77;;;3.93;;
19883;SDS011;10104;50.732;10.174;2023-03-13T01:06:05;21.43;;;4.40;;
19883;SDS011;10104;50.732;10.174;2023-03-13T01:08:29;18.80;;;4.50;;
19883;SDS011;10104;50.732;10.174;2023-03-13T01:10:56;19.80;;;3.90;;
19883;SDS011;10104;50.732;10.174;2023-03-13T01:13:28;23.33;;;4.67;;
19883;SDS011;10104;50.732;10.174;2023-03-13T01:15:53;16.47;;;4.73;;
19883;SDS011;10104;50.732;10.174;2023-03-13T01:18:14;22.37;;;4.67;;
19883;SDS011;10104;50.732;10.174;2023-03-13T01:20:36;19.53;;;5.10;;
19883;SDS011;10104;50.732;10.174;2023-03-13T01:22:58;21.70;;;4.90;;
19883;SDS011;10104;50.732;10.174;2023-03-13T01:25:20;20.77;;;4.37;;
19883;SDS011;10104;50.732;10.174;2023-03-13T01:27:41;17.13;;;4.00;;
19883;SDS011;10104;50.732;10.174;2023-03-13T01:30:03;16.07;;;4.07;;
19883;SDS011;10104;50.732;10.174;2023-03-13T01:32:25;20.00;;;4.40;;
19883;SDS011;10104;50.732;10.174;2023-03-13T01:34:46;14.90;;;3.70;;
19883;SDS011;10104;50.732;10.174;2023-03-13T01:37:08;20.10;;;3.80;;
19883;SDS011;10104;50.732;10.174;2023-03-13T01:39:29;21.40;;;4.07;;
19883;SDS011;10104;50.732;10.174;2023-03-13T01:41:51;19.13;;;4.50;;
19883;SDS011;10104;50.732;10.174;2023-03-13T01:44:22;21.67;;;4.70;;
19883;SDS011;10104;50.732;10.174;2023-03-13T01:46:45;20.73;;;4.37;;
19883;SDS011;10104;50.732;10.174;2023-03-13T01:51:42;23.07;;;4.63;;
19883;SDS011;10104;50.732;10.174;2023-03-13T01:54:17;16.47;;;4.13;;
19883;SDS011;10104;50.732;10.174;2023-03-13T01:56:54;20.20;;;4.70;;
19883;SDS011;10104;50.732;10.174;2023-03-13T01:59:25;16.23;;;4.40;;
19883;SDS011;10104;50.732;10.174;2023-03-13T02:01:50;16.90;;;4.13;;
19883;SDS011;10104;50.732;10.174;2023-03-13T02:04:15;20.63;;;3.60;;
19883;SDS011;10104;50.732;10.174;2023-03-13T02:06:41;15.90;;;4.27;;
19883;SDS011;10104;50.732;10.174;2023-03-13T02:09:08;17.37;;;4.13;;
19883;SDS011;10104;50.732;10.174;2023-03-13T02:14:21;17.70;;;3.83;;
19883;SDS011;10104;50.732;10.174;2023-03-13T02:16:46;16.57;;;4.20;;
19883;SDS011;10104;50.732;10.174;2023-03-13T02:19:16;25.77;;;5.07;;
19883;SDS011;10104;50.732;10.174;2023-03-13T02:24:27;17.83;;;4.07;;
19883;SDS011;10104;50.732;10.174;2023-03-13T02:26:56;16.77;;;4.13;;
19883;SDS011;10104;50.732;10.174;2023-03-13T02:29:17;17.03;;;4.27;;
19883;SDS011;10104;50.732;10.174;2023-03-13T02:31:39;18.87;;;4.40;;
19883;SDS011;10104;50.732;10.174;2023-03-13T02:34:00;18.40;;;4.90;;
19883;SDS011;10104;50.732;10.174;2023-03-13T02:36:23;12.87;;;3.30;;
19883;SDS011;10104;50.732;10.174;2023-03-13T02:38:47;13.27;;;4.07;;
19883;SDS011;10104;50.732;10.174;2023-03-13T02:41:15;14.23;;;3.87;;
19883;SDS011;10104;50.732;10.174;2023-03-13T02:43:38;17.80;;;3.83;;
19883;SDS011;10104;50.732;10.174;2023-03-13T02:46:10;14.77;;;4.10;;
19883;SDS011;10104;50.732;10.174;2023-03-13T02:48:34;16.53;;;4.03;;
19883;SDS011;10104;50.732;10.174;2023-03-13T02:51:39;15.30;;;3.57;;
19883;SDS011;10104;50.732;10.174;2023-03-13T02:54:03;18.23;;;4.00;;
19883;SDS011;10104;50.732;10.174;2023-03-13T02:56:29;13.93;;;3.97;;
19883;SDS011;10104;50.732;10.174;2023-03-13T02:58:53;16.43;;;3.90;;
19883;SDS011;10104;50.732;10.174;2023-03-13T03:01:15;14.13;;;3.80;;
19883;SDS011;10104;50.732;10.174;2023-03-13T03:03:36;21.30;;;4.63;;
19883;SDS011;10104;50.732;10.174;2023-03-13T03:05:58;18.37;;;4.33;;
19883;SDS011;10104;50.732;10.174;2023-03-13T03:08:19;14.37;;;3.80;;
19883;SDS011;10104;50.732;10.174;2023-03-13T03:10:41;18.00;;;4.03;;
19883;SDS011;10104;50.732;10.174;2023-03-13T03:13:02;17.77;;;4.40;;
19883;SDS011;10104;50.732;10.174;2023-03-13T03:15:24;17.83;;;4.20;;
19883;SDS011;10104;50.732;10.174;2023-03-13T03:17:46;20.17;;;4.13;;
19883;SDS011;10104;50.732;10.174;2023-03-13T03:20:07;18.33;;;3.93;;
19883;SDS011;10104;50.732;10.174;2023-03-13T03:22:32;17.83;;;4.57;;
19883;SDS011;10104;50.732;10.174;2023-03-13T03:24:54;13.37;;;3.23;;
19883;SDS011;10104;50.732;10.174;2023-03-13T03:27:16;16.23;;;3.93;;
19883;SDS011;10104;50.732;10.174;2023-03-13T03:29:37;13.80;;;3.50;;
19883;SDS011;10104;50.732;10.174;2023-03-13T03:31:59;9.27;;;3.33;;
19883;SDS011;10104;50.732;10.174;2023-03-13T03:34:21;16.90;;;3.33;;
19883;SDS011;10104;50.732;10.174;2023-03-13T03:36:42;18.00;;;3.90;;
19883;SDS011;10104;50.732;10.174;2023-03-13T03:39:03;13.27;;;3.37;;
19883;SDS011;10104;50.732;10.174;2023-03-13T03:41:25;15.03;;;3.57;;
19883;SDS011;10104;50.732;10.174;2023-03-13T03:43:47;14.97;;;3.20;;
19883;SDS011;10104;50.732;10.174;2023-03-13T03:46:09;16.60;;;3.90;;
19883;SDS011;10104;50.732;10.174;2023-03-13T03:48:31;15.13;;;3.13;;
19883;SDS011;10104;50.732;10.174;2023-03-13T03:50:52;20.13;;;3.70;;
19883;SDS011;10104;50.732;10.174;2023-03-13T03:53:14;18.73;;;3.77;;
19883;SDS011;10104;50.732;10.174;2023-03-13T03:55:35;12.77;;;3.40;;
19883;SDS011;10104;50.732;10.174;2023-03-13T03:57:57;14.57;;;3.47;;
19883;SDS011;10104;50.732;10.174;2023-03-13T04:00:18;11.37;;;3.00;;
19883;SDS011;10104;50.732;10.174;2023-03-13T04:02:40;14.53;;;3.03;;
19883;SDS011;10104;50.732;10.174;2023-03-13T04:05:02;11.10;;;3.47;;
19883;SDS011;10104;50.732;10.174;2023-03-13T04:07:24;12.50;;;3.23;;
19883;SDS011;10104;50.732;10.174;2023-03-13T04:09:46;17.13;;;3.67;;
19883;SDS011;10104;50.732;10.174;2023-03-13T04:12:07;12.93;;;4.17;;
19883;SDS011;10104;50.732;10.174;2023-03-13T04:14:29;16.70;;;4.83;;
19883;SDS011;10104;50.732;10.174;2023-03-13T04:16:51;15.67;;;4.43;;
19883;SDS011;10104;50.732;10.174;2023-03-13T04:19:12;22.23;;;7.27;;
19883;SDS011;10104;50.732;10.174;2023-03-13T04:21:34;19.57;;;5.30;;
19883;SDS011;10104;50.732;10.174;2023-03-13T04:23:55;16.80;;;3.83;;
19883;SDS011;10104;50.732;10.174;2023-03-13T04:26:17;12.30;;;3.80;;
19883;SDS011;10104;50.732;10.174;2023-03-13T04:28:38;12.80;;;3.83;;
19883;SDS011;10104;50.732;10.174;2023-03-13T04:31:00;13.00;;;4.37;;
19883;SDS011;10104;50.732;10.174;2023-03-13T04:33:24;19.37;;;6.83;;
19883;SDS011;10104;50.732;10.174;2023-03-13T04:35:46;22.17;;;7.97;;
19883;SDS011;10104;50.732;10.174;2023-03-13T04:38:07;11.30;;;3.37;;
19883;SDS011;10104;50.732;10.174;2023-03-13T04:40:29;15.53;;;5.83;;
19883;SDS011;10104;50.732;10.174;2023-03-13T04:42:50;14.07;;;4.47;;
19883;SDS011;10104;50.732;10.174;2023-03-13T04:45:12;8.97;;;3.33;;
19883;SDS011;10104;50.732;10.174;2023-03-13T04:47:33;10.77;;;3.63;;
19883;SDS011;10104;50.732;10.174;2023-03-13T04:49:55;19.37;;;5.93;;
19883;SDS011;10104;50.732;10.174;2023-03-13T04:52:16;14.30;;;5.50;;
19883;SDS011;10104;50.732;10.174;2023-03-13T04:54:38;16.10;;;5.00;;
19883;SDS011;10104;50.732;10.174;2023-03-13T04:56:59;14.10;;;4.83;;
19883;SDS011;10104;50.732;10.174;2023-03-13T04:59:21;12.90;;;3.63;;
19883;SDS011;10104;50.732;10.174;2023-03-13T05:01:42;11.53;;;4.03;;
19883;SDS011;10104;50.732;10.174;2023-03-13T05:04:04;8.87;;;3.53;;
19883;SDS011;10104;50.732;10.174;2023-03-13T05:06:26;8.97;;;3.27;;
19883;SDS011;10104;50.732;10.174;2023-03-13T05:08:47;9.33;;;3.20;;
19883;SDS011;10104;50.732;10.174;2023-03-13T05:11:09;8.77;;;2.73;;
19883;SDS011;10104;50.732;10.174;2023-03-13T05:13:30;12.17;;;2.97;;
19883;SDS011;10104;50.732;10.174;2023-03-13T05:15:52;9.43;;;3.07;;
19883;SDS011;10104;50.732;10.174;2023-03-13T05:18:14;8.00;;;2.30;;
19883;SDS011;10104;50.732;10.174;2023-03-13T05:20:35;7.07;;;2.70;;
19883;SDS011;10104;50.732;10.174;2023-03-13T05:22:57;8.03;;;3.23;;
19883;SDS011;10104;50.732;10.174;2023-03-13T05:25:18;3.70;;;1.50;;
19883;SDS011;10104;50.732;10.174;2023-03-13T05:27:40;3.47;;;1.30;;
19883;SDS011;10104;50.732;10.174;2023-03-13T05:30:01;3.27;;;1.27;;
19883;SDS011;10104;50.732;10.174;2023-03-13T05:32:23;3.50;;;1.17;;
19883;SDS011;10104;50.732;10.174;2023-03-13T05:34:44;1.73;;;0.80;;
19883;SDS011;10104;50.732;10.174;2023-03-13T05:37:06;3.07;;;1.03;;
19883;SDS011;10104;50.732;10.174;2023-03-13T05:39:27;1.97;;;0.83;;
19883;SDS011;10104;50.732;10.174;2023-03-13T05:41:49;1.33;;;0.67;;
19883;SDS011;10104;50.732;10.174;2023-03-13T05:44:10;3.47;;;0.77;;
19883;SDS011;10104;50.732;10.174;2023-03-13T05:46:32;1.53;;;0.80;;
19883;SDS011;10104;50.732;10.174;2023-03-13T05:48:54;2.50;;;0.90;;
19883;SDS011;10104;50.732;10.174;2023-03-13T05:51:15;1.50;;;0.73;;
19883;SDS011;10104;50.732;10.174;2023-03-13T05:53:37;3.63;;;0.90;;
19883;SDS011;10104;50.732;10.174;2023-03-13T05:55:58;2.10;;;0.83;;
19883;SDS011;10104;50.732;10.174;2023-03-13T05:58:20;1.60;;;0.80;;
19883;SDS011;10104;50.732;10.174;2023-03-13T06:00:41;2.20;;;0.90;;
19883;SDS011;10104;50.732;10.174;2023-03-13T06:03:03;1.50;;;0.87;;
19883;SDS011;10104;50.732;10.174;2023-03-13T06:05:25;4.03;;;0.80;;
19883;SDS011;10104;50.732;10.174;2023-03-13T06:07:48;2.53;;;0.90;;
19883;SDS011;10104;50.732;10.174;2023-03-13T06:10:10;1.23;;;0.87;;
19883;SDS011;10104;50.732;10.174;2023-03-13T06:12:32;1.37;;;1.00;;
19883;SDS011;10104;50.732;10.174;2023-03-13T06:14:53;2.60;;;1.00;;
19883;SDS011;10104;50.732;10.174;2023-03-13T06:17:15;1.43;;;0.80;;
19883;SDS011;10104;50.732;10.174;2023-03-13T06:19:37;5.60;;;1.37;;
19883;SDS011;10104;50.732;10.174;2023-03-13T06:21:58;1.77;;;0.80;;
19883;SDS011;10104;50.732;10.174;2023-03-13T06:24:20;3.60;;;1.20;;
19883;SDS011;10104;50.732;10.174;2023-03-13T06:26:41;2.13;;;1.20;;
19883;SDS011;10104;50.732;10.174;2023-03-13T06:29:03;3.03;;;1.10;;
19883;SDS011;10104;50.732;10.174;2023-03-13T06:31:24;2.63;;;1.50;;
19883;SDS011;10104;50.732;10.174;2023-03-13T06:33:46;2.73;;;1.20;;
19883;SDS011;10104;50.732;10.174;2023-03-13T06:36:10;3.17;;;1.07;;
19883;SDS011;10104;50.732;10.174;2023-03-13T06:38:32;2.33;;;1.20;;
19883;SDS011;10104;50.732;10.174;2023-03-13T06:40:54;2.47;;;1.00;;
19883;SDS011;10104;50.732;10.174;2023-03-13T06:43:16;1.63;;;1.00;;
19883;SDS011;10104;50.732;10.174;2023-03-13T06:45:37;2.53;;;1.10;;
19883;SDS011;10104;50.732;10.174;2023-03-13T06:47:59;1.30;;;0.73;;
19883;SDS011;10104;50.732;10.174;2023-03-13T06:50:20;1.20;;;0.83;;
19883;SDS011;10104;50.732;10.174;2023-03-13T06:52:42;1.63;;;0.87;;
19883;SDS011;10104;50.732;10.174;2023-03-13T06:55:04;2.10;;;0.93;;
19883;SDS011;10104;50.732;10.174;2023-03-13T06:57:26;2.30;;;1.03;;
19883;SDS011;10104;50.732;10.174;2023-03-13T06:59:47;0.93;;;0.87;;
19883;SDS011;10104;50.732;10.174;2023-03-13T07:02:12;0.90;;;0.70;;
19883;SDS011;10104;50.732;10.174;2023-03-13T07:04:34;1.10;;;0.80;;
19883;SDS011;10104;50.732;10.174;2023-03-13T07:06:56;2.37;;;1.17;;
19883;SDS011;10104;50.732;10.174;2023-03-13T07:09:17;1.43;;;1.00;;
19883;SDS011;10104;50.732;10.174;2023-03-13T07:11:40;1.90;;;1.10;;
19883;SDS011;10104;50.732;10.174;2023-03-13T07:14:01;1.30;;;0.90;;
19883;SDS011;10104;50.732;10.174;2023-03-13T07:16:36;0.80;;;0.80;;
19883;SDS011;10104;50.732;10.174;2023-03-13T07:18:58;1.67;;;1.00;;
19883;SDS011;10104;50.732;10.174;2023-03-13T07:21:19;2.43;;;1.00;;
19883;SDS011;10104;50.732;10.174;2023-03-13T07:23:41;1.33;;;0.93;;
19883;SDS011;10104;50.732;10.174;2023-03-13T07:26:04;2.13;;;1.20;;
19883;SDS011;10104;50.732;10.174;2023-03-13T07:28:29;2.97;;;1.43;;
19883;SDS011;10104;50.732;10.174;2023-03-13T07:30:51;1.47;;;1.30;;
19883;SDS011;10104;50.732;10.174;2023-03-13T07:33:14;1.80;;;1.17;;
19883;SDS011;10104;50.732;10.174;2023-03-13T07:35:36;1.83;;;1.20;;
19883;SDS011;10104;50.732;10.174;2023-03-13T07:38:00;1.80;;;1.30;;
19883;SDS011;10104;50.732;10.174;2023-03-13T07:40:21;1.70;;;1.40;;
19883;SDS011;10104;50.732;10.174;2023-03-13T07:42:43;1.80;;;1.47;;
19883;SDS011;10104;50.732;10.174;2023-03-13T07:45:04;2.40;;;1.50;;
19883;SDS011;10104;50.732;10.174;2023-03-13T07:47:27;2.80;;;1.60;;
19883;SDS011;10104;50.732;10.174;2023-03-13T07:49:48;2.53;;;1.60;;
19883;SDS011;10104;50.732;10.174;2023-03-13T07:52:10;3.03;;;1.57;;
19883;SDS011;10104;50.732;10.174;2023-03-13T07:54:31;3.27;;;1.67;;
19883;SDS011;10104;50.732;10.174;2023-03-13T07:56:53;1.90;;;1.60;;
19883;SDS011;10104;50.732;10.174;2023-03-13T07:59:14;2.20;;;1.37;;
19883;SDS011;10104;50.732;10.174;2023-03-13T08:01:36;2.30;;;1.67;;
19883;SDS011;10104;50.732;10.174;2023-03-13T08:03:57;3.37;;;1.90;;
19883;SDS011;10104;50.732;10.174;2023-03-13T08:06:23;2.83;;;2.00;;
19883;SDS011;10104;50.732;10.174;2023-03-13T08:08:45;3.63;;;2.00;;
19883;SDS011;10104;50.732;10.174;2023-03-13T08:11:09;3.77;;;1.80;;
19883;SDS011;10104;50.732;10.174;2023-03-13T08:13:33;2.80;;;1.87;;
19883;SDS011;10104;50.732;10.174;2023-03-13T08:16:12;3.00;;;1.93;;
19883;SDS011;10104;50.732;10.174;2023-03-13T08:18:43;2.20;;;1.77;;
19883;SDS011;10104;50.732;10.174;2023-03-13T08:21:07;4.13;;;1.77;;
19883;SDS011;10104;50.732;10.174;2023-03-13T08:23:31;2.63;;;1.83;;
19883;SDS011;10104;50.732;10.174;2023-03-13T08:25:53;1.60;;;1.50;;
19883;SDS011;10104;50.732;10.174;2023-03-13T08:28:14;3.30;;;1.60;;
19883;SDS011;10104;50.732;10.174;2023-03-13T08:30:36;3.13;;;1.60;;
19883;SDS011;10104;50.732;10.174;2023-03-13T08:32:57;1.60;;;1.40;;
19883;SDS011;10104;50.732;10.174;2023-03-13T08:35:19;1.70;;;1.60;;
19883;SDS011;10104;50.732;10.174;2023-03-13T08:37:41;2.13;;;1.30;;
19883;SDS011;10104;50.732;10.174;2023-03-13T08:40:02;1.73;;;1.60;;
19883;SDS011;10104;50.732;10.174;2023-03-13T08:42:30;2.83;;;1.60;;
19883;SDS011;10104;50.732;10.174;2023-03-13T08:44:51;1.83;;;1.60;;
19883;SDS011;10104;50.732;10.174;2023-03-13T08:47:13;3.77;;;1.57;;
19883;SDS011;10104;50.732;10.174;2023-03-13T08:49:35;2.47;;;1.50;;
19883;SDS011;10104;50.732;10.174;2023-03-13T08:51:56;1.70;;;1.53;;
19883;SDS011;10104;50.732;10.174;2023-03-13T08:54:18;4.87;;;1.60;;
19883;SDS011;10104;50.732;10.174;2023-03-13T08:56:39;1.93;;;1.60;;
19883;SDS011;10104;50.732;10.174;2023-03-13T08:59:02;2.37;;;1.57;;
19883;SDS011;10104;50.732;10.174;2023-03-13T09:01:27;2.23;;;1.37;;
19883;SDS011;10104;50.732;10.174;2023-03-13T09:03:50;2.17;;;1.70;;
19883;SDS011;10104;50.732;10.174;2023-03-13T09:06:12;2.13;;;1.80;;
19883;SDS011;10104;50.732;10.174;2023-03-13T09:08:34;2.37;;;1.67;;
19883;SDS011;10104;50.732;10.174;2023-03-13T09:11:04;2.80;;;1.80;;
19883;SDS011;10104;50.732;10.174;2023-03-13T09:13:27;1.90;;;1.70;;
19883;SDS011;10104;50.732;10.174;2023-03-13T09:15:58;3.47;;;2.30;;
19883;SDS011;10104;50.732;10.174;2023-03-13T09:18:24;2.20;;;1.93;;
19883;SDS011;10104;50.732;10.174;2023-03-13T09:20:46;1.57;;;1.40;;
19883;SDS011;10104;50.732;10.174;2023-03-13T09:23:09;2.70;;;2.07;;
19883;SDS011;10104;50.732;10.174;2023-03-13T09:25:30;3.20;;;1.77;;
19883;SDS011;10104;50.732;10.174;2023-03-13T09:27:52;2.37;;;1.47;;
19883;SDS011;10104;50.732;10.174;2023-03-13T09:30:13;3.77;;;1.97;;
19883;SDS011;10104;50.732;10.174;2023-03-13T09:32:35;3.63;;;1.70;;
19883;SDS011;10104;50.732;10.174;2023-03-13T09:34:56;3.03;;;1.80;;
19883;SDS011;10104;50.732;10.174;2023-03-13T09:37:18;2.30;;;2.07;;
19883;SDS011;10104;50.732;10.174;2023-03-13T09:39:39;2.60;;;1.73;;
19883;SDS011;10104;50.732;10.174;2023-03-13T09:42:03;3.63;;;2.00;;
19883;SDS011;10104;50.732;10.174;2023-03-13T09:44:36;2.85;;;1.77;;
19883;SDS011;10104;50.732;10.174;2023-03-13T09:49:51;2.35;;;1.48;;
19883;SDS011;10104;50.732;10.174;2023-03-13T09:52:18;3.97;;;2.15;;
19883;SDS011;10104;50.732;10.174;2023-03-13T09:54:45;3.03;;;1.63;;
19883;SDS011;10104;50.732;10.174;2023-03-13T09:57:16;1.45;;;1.27;;
19883;SDS011;10104;50.732;10.174;2023-03-13T09:59:50;2.58;;;1.40;;
19883;SDS011;10104;50.732;10.174;2023-03-13T10:02:23;1.50;;;1.30;;
19883;SDS011;10104;50.732;10.174;2023-03-13T10:04:50;1.95;;;1.50;;
19883;SDS011;10104;50.732;10.174;2023-03-13T10:07:18;2.40;;;1.40;;
19883;SDS011;10104;50.732;10.174;2023-03-13T10:09:41;1.98;;;1.30;;
19883;SDS011;10104;50.732;10.174;2023-03-13T10:14:42;2.75;;;1.33;;
19883;SDS011;10104;50.732;10.174;2023-03-13T10:17:29;2.72;;;1.27;;
19883;SDS011;10104;50.732;10.174;2023-03-13T10:22:43;2.15;;;1.30;;
19883;SDS011;10104;50.732;10.174;2023-03-13T10:25:28;2.50;;;1.58;;
19883;SDS011;10104;50.732;10.174;2023-03-13T10:27:52;1.35;;;1.25;;
19883;SDS011;10104;50.732;10.174;2023-03-13T10:30:20;1.50;;;1.15;;
19883;SDS011;10104;50.732;10.174;2023-03-13T10:32:45;2.00;;;1.50;;
19883;SDS011;10104;50.732;10.174;2023-03-13T10:35:07;3.22;;;1.48;;
19883;SDS011;10104;50.732;10.174;2023-03-13T10:37:31;2.53;;;1.38;;
19883;SDS011;10104;50.732;10.174;2023-03-13T10:42:43;4.93;;;1.30;;
19883;SDS011;10104;50.732;10.174;2023-03-13T10:45:06;2.63;;;1.40;;
19883;SDS011;10104;50.732;10.174;2023-03-13T10:47:31;1.63;;;1.40;;
19883;SDS011;10104;50.732;10.174;2023-03-13T10:49:55;3.92;;;1.80;;
19883;SDS011;10104;50.732;10.174;2023-03-13T10:52:31;2.33;;;1.70;;
19883;SDS011;10104;50.732;10.174;2023-03-13T10:54:55;2.08;;;1.55;;
19883;SDS011;10104;50.732;10.174;2023-03-13T10:59:45;4.85;;;2.10;;
19883;SDS011;10104;50.732;10.174;2023-03-13T11:02:19;4.82;;;1.85;;
19883;SDS011;10104;50.732;10.174;2023-03-13T11:04:44;3.28;;;1.60;;
19883;SDS011;10104;50.732;10.174;2023-03-13T11:07:24;3.65;;;1.70;;
19883;SDS011;10104;50.732;10.174;2023-03-13T11:12:43;4.47;;;1.90;;
19883;SDS011;10104;50.732;10.174;2023-03-13T11:15:10;3.83;;;1.73;;
19883;SDS011;10104;50.732;10.174;2023-03-13T11:17:36;4.10;;;1.80;;
19883;SDS011;10104;50.732;10.174;2023-03-13T11:25:49;3.28;;;1.88;;
19883;SDS011;10104;50.732;10.174;2023-03-13T11:36:42;1.90;;;1.65;;
19883;SDS011;10104;50.732;10.174;2023-03-13T11:41:59;3.97;;;1.50;;
19883;SDS011;10104;50.732;10.174;2023-03-13T11:47:26;2.63;;;2.10;;
19883;SDS011;10104;50.732;10.174;2023-03-13T11:57:50;3.08;;;2.00;;
19883;SDS011;10104;50.732;10.174;2023-03-13T12:00:21;2.88;;;1.95;;
19883;SDS011;10104;50.732;10.174;2023-03-13T12:02:55;1.90;;;1.58;;
19883;SDS011;10104;50.732;10.174;2023-03-13T12:05:25;3.95;;;1.90;;
19883;SDS011;10104;50.732;10.174;2023-03-13T12:07:50;2.60;;;1.70;;
19883;SDS011;10104;50.732;10.174;2023-03-13T12:10:18;2.88;;;2.00;;
19883;SDS011;10104;50.732;10.174;2023-03-13T12:12:48;2.55;;;1.80;;
19883;SDS011;10104;50.732;10.174;2023-03-13T12:15:25;2.80;;;1.80;;
19883;SDS011;10104;50.732;10.174;2023-03-13T12:17:55;3.42;;;2.00;;
19883;SDS011;10104;50.732;10.174;2023-03-13T12:20:25;3.67;;;1.80;;
19883;SDS011;10104;50.732;10.174;2023-03-13T12:23:17;3.60;;;1.70;;
19883;SDS011;10104;50.732;10.174;2023-03-13T12:25:45;4.45;;;2.30;;
19883;SDS011;10104;50.732;10.174;2023-03-13T12:28:20;4.00;;;2.05;;
19883;SDS011;10104;50.732;10.174;2023-03-13T12:33:25;4.10;;;1.90;;
19883;SDS011;10104;50.732;10.174;2023-03-13T12:36:16;3.35;;;1.98;;
19883;SDS011;10104;50.732;10.174;2023-03-13T12:38:55;4.28;;;1.70;;
19883;SDS011;10104;50.732;10.174;2023-03-13T12:41:26;2.58;;;1.80;;
19883;SDS011;10104;50.732;10.174;2023-03-13T12:43:53;2.33;;;1.85;;
19883;SDS011;10104;50.732;10.174;2023-03-13T12:46:45;3.53;;;1.90;;
19883;SDS011;10104;50.732;10.174;2023-03-13T13:00:27;4.28;;;1.90;;
19883;SDS011;10104;50.732;10.174;2023-03-13T13:03:02;3.33;;;2.00;;
19883;SDS011;10104;50.732;10.174;2023-03-13T13:05:26;2.35;;;1.58;;
19883;SDS011;10104;50.732;10.174;2023-03-13T13:07:52;3.25;;;1.83;;
19883;SDS011;10104;50.732;10.174;2023-03-13T13:10:17;3.15;;;1.70;;
19883;SDS011;10104;50.732;10.174;2023-03-13T13:12:43;3.03;;;1.67;;
19883;SDS011;10104;50.732;10.174;2023-03-13T13:15:24;2.92;;;1.75;;
19883;SDS011;10104;50.732;10.174;2023-03-13T13:20:48;2.15;;;1.80;;
19883;SDS011;10104;50.732;10.174;2023-03-13T13:23:30;4.97;;;1.60;;
19883;SDS011;10104;50.732;10.174;2023-03-13T13:28:58;3.20;;;1.77;;
19883;SDS011;10104;50.732;10.174;2023-03-13T13:34:05;4.80;;;1.70;;
19883;SDS011;10104;50.732;10.174;2023-03-13T13:36:27;2.78;;;1.73;;
19883;SDS011;10104;50.732;10.174;2023-03-13T13:38:49;2.75;;;1.92;;
19883;SDS011;10104;50.732;10.174;2023-03-13T13:43:37;2.38;;;1.92;;
19883;SDS011;10104;50.732;10.174;2023-03-13T13:46:01;5.13;;;2.47;;
19883;SDS011;10104;50.732;10.174;2023-03-13T13:48:31;3.88;;;1.92;;
19883;SDS011;10104;50.732;10.174;2023-03-13T13:58:49;3.53;;;1.73;;
19883;SDS011;10104;50.732;10.174;2023-03-13T14:01:17;2.33;;;1.63;;
19883;SDS011;10104;50.732;10.174;2023-03-13T14:03:39;6.57;;;2.20;;
19883;SDS011;10104;50.732;10.174;2023-03-13T14:06:16;2.90;;;2.00;;
19883;SDS011;10104;50.732;10.174;2023-03-13T14:08:41;3.92;;;1.95;;
19883;SDS011;10104;50.732;10.174;2023-03-13T14:11:08;2.80;;;2.00;;
19883;SDS011;10104;50.732;10.174;2023-03-13T14:13:42;2.47;;;1.85;;
19883;SDS011;10104;50.732;10.174;2023-03-13T14:16:19;5.03;;;1.90;;
19883;SDS011;10104;50.732;10.174;2023-03-13T14:18:45;3.42;;;2.30;;
19883;SDS011;10104;50.732;10.174;2023-03-13T14:21:06;5.68;;;2.00;;
19883;SDS011;10104;50.732;10.174;2023-03-13T14:28:40;3.50;;;1.90;;
19883;SDS011;10104;50.732;10.174;2023-03-13T14:31:03;3.22;;;1.95;;
19883;SDS011;10104;50.732;10.174;2023-03-13T14:33:25;3.95;;;2.08;;
19883;SDS011;10104;50.732;10.174;2023-03-13T14:35:48;3.30;;;2.20;;
19883;SDS011;10104;50.732;10.174;2023-03-13T14:40:38;5.20;;;2.30;;
19883;SDS011;10104;50.732;10.174;2023-03-13T14:43:00;3.53;;;2.30;;
19883;SDS011;10104;50.732;10.174;2023-03-13T14:45:29;4.90;;;2.50;;
19883;SDS011;10104;50.732;10.174;2023-03-13T14:47:52;4.03;;;2.42;;
19883;SDS011;10104;50.732;10.174;2023-03-13T14:50:14;6.18;;;2.40;;
19883;SDS011;10104;50.732;10.174;2023-03-13T14:52:43;6.35;;;2.53;;
19883;SDS011;10104;50.732;10.174;2023-03-13T14:57:53;7.10;;;2.67;;
19883;SDS011;10104;50.732;10.174;2023-03-13T15:05:39;8.68;;;6.00;;
19883;SDS011;10104;50.732;10.174;2023-03-13T15:08:00;6.18;;;3.67;;
19883;SDS011;10104;50.732;10.174;2023-03-13T15:10:23;4.32;;;2.35;;
19883;SDS011;10104;50.732;10.174;2023-03-13T15:12:50;4.88;;;2.63;;
19883;SDS011;10104;50.732;10.174;2023-03-13T15:15:12;4.20;;;2.63;;
19883;SDS011;10104;50.732;10.174;2023-03-13T15:17:34;9.15;;;5.70;;
19883;SDS011;10104;50.732;10.174;2023-03-13T15:19:56;3.00;;;2.05;;
19883;SDS011;10104;50.732;10.174;2023-03-13T15:22:20;3.17;;;1.90;;
19883;SDS011;10104;50.732;10.174;2023-03-13T15:24:48;4.35;;;1.83;;
19883;SDS011;10104;50.732;10.174;2023-03-13T15:27:25;3.50;;;1.75;;
19883;SDS011;10104;50.732;10.174;2023-03-13T15:29:47;2.90;;;1.70;;
19883;SDS011;10104;50.732;10.174;2023-03-13T15:32:11;5.68;;;2.20;;
19883;SDS011;10104;50.732;10.174;2023-03-13T15:34:38;4.43;;;2.00;;
19883;SDS011;10104;50.732;10.174;2023-03-13T15:37:00;6.63;;;2.03;;
19883;SDS011;10104;50.732;10.174;2023-03-13T15:39:21;3.88;;;1.80;;
19883;SDS011;10104;50.732;10.174;2023-03-13T15:41:44;2.40;;;1.90;;
19883;SDS011;10104;50.732;10.174;2023-03-13T15:44:06;3.10;;;1.63;;
19883;SDS011;10104;50.732;10.174;2023-03-13T15:46:27;4.30;;;2.05;;
19883;SDS011;10104;50.732;10.174;2023-03-13T15:48:49;2.67;;;2.00;;
19883;SDS011;10104;50.732;10.174;2023-03-13T15:51:12;4.97;;;2.10;;
19883;SDS011;10104;50.732;10.174;2023-03-13T15:53:35;3.80;;;2.10;;
19883;SDS011;10104;50.732;10.174;2023-03-13T15:55:57;4.43;;;2.08;;